sensor_id;sensor_type;location;lat;lon;timestamp;pressure;altitude;pressure_sealevel;temperature;humidity
53246;BME280;39569;51.090;-1.786;2023-02-02T00:00:55;102004.78;;;29.88;27.85
53246;BME280;39569;51.090;-1.786;2023-02-02T00:03:22;102002.81;;;29.83;28.03
53246;BME280;39569;51.090;-1.786;2023-02-02T00:05:51;102004.63;;;29.53;28.17
53246;BME280;39569;51.090;-1.786;2023-02-02T00:08:20;102016.69;;;29.47;28.28
53246;BME280;39569;51.090;-1.786;2023-02-02T00:10:47;102006.47;;;29.42;28.25
53246;BME280;39569;51.090;-1.786;2023-02-02T00:13:15;102021.88;;;29.38;28.43
53246;BME280;39569;51.090;-1.786;2023-02-02T00:15:43;102030.13;;;29.38;28.52
53246;BME280;39569;51.090;-1.786;2023-02-02T00:18:09;102009.50;;;29.36;28.36
53246;BME280;39569;51.090;-1.786;2023-02-02T00:20:36;102011.97;;;29.32;28.39
53246;BME280;39569;51.090;-1.786;2023-02-02T00:23:03;102007.78;;;29.25;28.43
53246;BME280;39569;51.090;-1.786;2023-02-02T00:25:30;102012.44;;;29.24;28.39
53246;BME280;39569;51.090;-1.786;2023-02-02T00:27:57;102017.38;;;29.17;28.51
53246;BME280;39569;51.090;-1.786;2023-02-02T00:30:23;102009.09;;;29.12;28.65
53246;BME280;39569;51.090;-1.786;2023-02-02T00:32:52;102013.22;;;29.15;28.52
53246;BME280;39569;51.090;-1.786;2023-02-02T00:35:19;102012.91;;;29.11;28.66
53246;BME280;39569;51.090;-1.786;2023-02-02T00:37:46;102005.13;;;29.03;28.54
53246;BME280;39569;51.090;-1.786;2023-02-02T00:40:13;102005.41;;;29.01;28.63
53246;BME280;39569;51.090;-1.786;2023-02-02T00:42:40;102009.25;;;29.00;28.60
53246;BME280;39569;51.090;-1.786;2023-02-02T00:45:12;102005.41;;;29.01;28.69
53246;BME280;39569;51.090;-1.786;2023-02-02T00:47:41;102005.34;;;28.91;28.66
53246;BME280;39569;51.090;-1.786;2023-02-02T00:50:12;101996.53;;;28.89;28.71
53246;BME280;39569;51.090;-1.786;2023-02-02T00:52:39;101992.94;;;28.89;28.75
53246;BME280;39569;51.090;-1.786;2023-02-02T00:55:07;101990.19;;;28.89;28.76
53246;BME280;39569;51.090;-1.786;2023-02-02T00:57:33;101980.81;;;28.85;28.65
53246;BME280;39569;51.090;-1.786;2023-02-02T01:00:00;101995.13;;;28.87;28.96
53246;BME280;39569;51.090;-1.786;2023-02-02T01:02:27;101995.09;;;28.82;28.64
53246;BME280;39569;51.090;-1.786;2023-02-02T01:04:54;101989.25;;;28.73;28.71
53246;BME280;39569;51.090;-1.786;2023-02-02T01:07:22;101987.91;;;28.81;28.91
53246;BME280;39569;51.090;-1.786;2023-02-02T01:09:49;101990.91;;;28.74;28.84
53246;BME280;39569;51.090;-1.786;2023-02-02T01:12:16;101987.28;;;28.69;28.82
53246;BME280;39569;51.090;-1.786;2023-02-02T01:14:42;101993.06;;;28.67;29.02
53246;BME280;39569;51.090;-1.786;2023-02-02T01:17:09;101987.50;;;28.62;28.82
53246;BME280;39569;51.090;-1.786;2023-02-02T01:19:36;101990.31;;;28.67;28.97
53246;BME280;39569;51.090;-1.786;2023-02-02T01:22:03;101990.03;;;28.64;28.54
53246;BME280;39569;51.090;-1.786;2023-02-02T01:24:31;101987.81;;;28.66;28.98
53246;BME280;39569;51.090;-1.786;2023-02-02T01:26:58;101992.72;;;28.59;28.52
53246;BME280;39569;51.090;-1.786;2023-02-02T01:29:24;102003.97;;;28.57;28.80
53246;BME280;39569;51.090;-1.786;2023-02-02T01:31:52;101995.09;;;28.50;28.94
53246;BME280;39569;51.090;-1.786;2023-02-02T01:34:18;102010.47;;;28.51;29.09
53246;BME280;39569;51.090;-1.786;2023-02-02T01:36:45;102009.59;;;28.46;28.92
53246;BME280;39569;51.090;-1.786;2023-02-02T01:39:12;101999.97;;;28.43;29.29
53246;BME280;39569;51.090;-1.786;2023-02-02T01:41:40;101997.06;;;28.55;29.00
53246;BME280;39569;51.090;-1.786;2023-02-02T01:47:07;101994.47;;;28.43;28.60
53246;BME280;39569;51.090;-1.786;2023-02-02T01:49:34;101996.13;;;28.44;28.85
53246;BME280;39569;51.090;-1.786;2023-02-02T01:52:03;101993.06;;;28.41;28.99
53246;BME280;39569;51.090;-1.786;2023-02-02T01:54:33;101994.47;;;28.43;28.68
53246;BME280;39569;51.090;-1.786;2023-02-02T01:57:05;101994.69;;;28.37;28.93
53246;BME280;39569;51.090;-1.786;2023-02-02T01:59:34;101995.50;;;28.32;28.83
53246;BME280;39569;51.090;-1.786;2023-02-02T02:02:01;101996.00;;;28.29;29.24
53246;BME280;39569;51.090;-1.786;2023-02-02T02:04:29;101988.59;;;28.30;29.11
53246;BME280;39569;51.090;-1.786;2023-02-02T02:06:57;101987.75;;;28.29;28.93
53246;BME280;39569;51.090;-1.786;2023-02-02T02:09:25;101981.66;;;28.27;29.14
53246;BME280;39569;51.090;-1.786;2023-02-02T02:11:52;101980.56;;;28.23;28.95
53246;BME280;39569;51.090;-1.786;2023-02-02T02:14:20;101983.91;;;28.30;28.81
53246;BME280;39569;51.090;-1.786;2023-02-02T02:17:27;101985.00;;;28.29;28.83
53246;BME280;39569;51.090;-1.786;2023-02-02T02:23:49;101974.50;;;28.21;28.75
53246;BME280;39569;51.090;-1.786;2023-02-02T02:26:52;101974.50;;;28.21;29.00
53246;BME280;39569;51.090;-1.786;2023-02-02T02:29:36;101969.00;;;28.21;28.89
53246;BME280;39569;51.090;-1.786;2023-02-02T02:32:19;101968.69;;;28.18;29.19
53246;BME280;39569;51.090;-1.786;2023-02-02T02:34:53;101979.34;;;28.14;28.96
53246;BME280;39569;51.090;-1.786;2023-02-02T02:37:28;101978.81;;;28.12;29.06
53246;BME280;39569;51.090;-1.786;2023-02-02T02:40:02;101979.56;;;28.07;28.97
53246;BME280;39569;51.090;-1.786;2023-02-02T02:42:33;101983.44;;;28.06;29.13
53246;BME280;39569;51.090;-1.786;2023-02-02T02:45:03;101991.09;;;28.04;29.27
53246;BME280;39569;51.090;-1.786;2023-02-02T02:47:34;101987.78;;;28.02;28.96
53246;BME280;39569;51.090;-1.786;2023-02-02T02:50:02;101985.47;;;27.94;29.12
53246;BME280;39569;51.090;-1.786;2023-02-02T02:52:29;101983.00;;;27.93;29.43
53246;BME280;39569;51.090;-1.786;2023-02-02T02:54:57;101979.16;;;27.94;29.00
53246;BME280;39569;51.090;-1.786;2023-02-02T02:57:43;101989.38;;;27.98;29.16
53246;BME280;39569;51.090;-1.786;2023-02-02T03:00:24;101976.16;;;27.95;29.17
53246;BME280;39569;51.090;-1.786;2023-02-02T03:03:04;101982.47;;;27.96;29.00
53246;BME280;39569;51.090;-1.786;2023-02-02T03:05:42;101982.41;;;27.91;28.77
53246;BME280;39569;51.090;-1.786;2023-02-02T03:08:16;101986.22;;;27.90;29.17
53246;BME280;39569;51.090;-1.786;2023-02-02T03:10:46;101983.69;;;27.83;29.33
53246;BME280;39569;51.090;-1.786;2023-02-02T03:13:13;101982.66;;;27.89;28.85
53246;BME280;39569;51.090;-1.786;2023-02-02T03:15:42;101978.19;;;27.83;29.07
53246;BME280;39569;51.090;-1.786;2023-02-02T03:18:11;101982.34;;;27.86;28.91
53246;BME280;39569;51.090;-1.786;2023-02-02T03:20:38;101983.38;;;27.80;28.73
53246;BME280;39569;51.090;-1.786;2023-02-02T03:23:05;101987.72;;;27.76;29.01
53246;BME280;39569;51.090;-1.786;2023-02-02T03:25:32;101998.13;;;27.74;28.81
53246;BME280;39569;51.090;-1.786;2023-02-02T03:27:59;102001.72;;;27.74;29.22
53246;BME280;39569;51.090;-1.786;2023-02-02T03:30:26;101993.22;;;27.76;29.03
53246;BME280;39569;51.090;-1.786;2023-02-02T03:32:53;102001.88;;;27.68;29.16
53246;BME280;39569;51.090;-1.786;2023-02-02T03:35:21;102004.19;;;27.76;28.91
53246;BME280;39569;51.090;-1.786;2023-02-02T03:37:50;102001.88;;;27.68;28.81
53246;BME280;39569;51.090;-1.786;2023-02-02T03:40:17;102000.56;;;27.70;28.76
53246;BME280;39569;51.090;-1.786;2023-02-02T03:42:44;101995.34;;;27.69;28.92
53246;BME280;39569;51.090;-1.786;2023-02-02T03:45:11;101997.56;;;27.72;28.93
53246;BME280;39569;51.090;-1.786;2023-02-02T03:47:38;101994.97;;;27.60;29.12
53246;BME280;39569;51.090;-1.786;2023-02-02T03:50:05;101988.56;;;27.55;29.44
53246;BME280;39569;51.090;-1.786;2023-02-02T03:52:33;101993.59;;;27.63;28.83
53246;BME280;39569;51.090;-1.786;2023-02-02T03:55:00;101991.44;;;27.65;28.97
53246;BME280;39569;51.090;-1.786;2023-02-02T03:57:27;101995.50;;;27.62;28.95
53246;BME280;39569;51.090;-1.786;2023-02-02T03:59:54;101997.44;;;27.62;29.18
53246;BME280;39569;51.090;-1.786;2023-02-02T04:02:20;102000.19;;;27.62;29.16
53246;BME280;39569;51.090;-1.786;2023-02-02T04:04:47;102003.75;;;27.62;28.74
53246;BME280;39569;51.090;-1.786;2023-02-02T04:07:14;102002.69;;;27.63;28.59
53246;BME280;39569;51.090;-1.786;2023-02-02T04:09:42;102006.50;;;27.62;28.78
53246;BME280;39569;51.090;-1.786;2023-02-02T04:12:09;102005.69;;;27.62;29.06
53246;BME280;39569;51.090;-1.786;2023-02-02T04:14:36;102011.09;;;27.57;28.67
53246;BME280;39569;51.090;-1.786;2023-02-02T04:17:02;102018.75;;;27.55;29.18
53246;BME280;39569;51.090;-1.786;2023-02-02T04:19:29;102014.09;;;27.55;29.06
53246;BME280;39569;51.090;-1.786;2023-02-02T04:21:56;102012.72;;;27.53;29.26
53246;BME280;39569;51.090;-1.786;2023-02-02T04:24:22;102006.56;;;27.46;28.92
53246;BME280;39569;51.090;-1.786;2023-02-02T04:26:50;102009.06;;;27.47;29.15
53246;BME280;39569;51.090;-1.786;2023-02-02T04:29:17;102012.31;;;27.44;29.24
53246;BME280;39569;51.090;-1.786;2023-02-02T04:31:44;102003.50;;;27.42;28.71
53246;BME280;39569;51.090;-1.786;2023-02-02T04:34:11;102007.09;;;27.43;28.80
53246;BME280;39569;51.090;-1.786;2023-02-02T04:36:37;102007.09;;;27.43;29.04
53246;BME280;39569;51.090;-1.786;2023-02-02T04:39:04;102006.81;;;27.44;28.60
53246;BME280;39569;51.090;-1.786;2023-02-02T04:41:31;102000.44;;;27.39;29.17
53246;BME280;39569;51.090;-1.786;2023-02-02T04:43:59;102003.22;;;27.44;28.73
53246;BME280;39569;51.090;-1.786;2023-02-02T04:46:26;102002.03;;;27.35;29.17
53246;BME280;39569;51.090;-1.786;2023-02-02T04:48:53;101999.78;;;27.32;28.99
53246;BME280;39569;51.090;-1.786;2023-02-02T04:51:20;102001.09;;;27.29;29.24
53246;BME280;39569;51.090;-1.786;2023-02-02T04:53:46;102004.19;;;27.33;29.23
53246;BME280;39569;51.090;-1.786;2023-02-02T04:56:15;102000.88;;;27.31;28.91
53246;BME280;39569;51.090;-1.786;2023-02-02T04:58:43;102002.53;;;27.32;28.73
53246;BME280;39569;51.090;-1.786;2023-02-02T05:01:13;101999.06;;;27.36;29.29
53246;BME280;39569;51.090;-1.786;2023-02-02T05:03:40;102009.09;;;27.31;29.08
53246;BME280;39569;51.090;-1.786;2023-02-02T05:06:07;102012.41;;;27.33;28.64
53246;BME280;39569;51.090;-1.786;2023-02-02T05:08:35;102010.16;;;27.30;29.20
53246;BME280;39569;51.090;-1.786;2023-02-02T05:11:05;102008.03;;;27.32;29.22
53246;BME280;39569;51.090;-1.786;2023-02-02T05:13:32;102007.69;;;27.28;28.92
53246;BME280;39569;51.090;-1.786;2023-02-02T05:15:59;102024.31;;;27.21;29.34
53246;BME280;39569;51.090;-1.786;2023-02-02T05:18:27;102023.25;;;27.23;29.41
53246;BME280;39569;51.090;-1.786;2023-02-02T05:20:58;102021.91;;;27.25;29.14
53246;BME280;39569;51.090;-1.786;2023-02-02T05:23:25;102025.09;;;27.17;28.90
53246;BME280;39569;51.090;-1.786;2023-02-02T05:25:52;102019.75;;;27.10;29.02
53246;BME280;39569;51.090;-1.786;2023-02-02T05:28:20;102030.72;;;27.10;28.95
53246;BME280;39569;51.090;-1.786;2023-02-02T05:30:46;102033.81;;;27.14;29.29
53246;BME280;39569;51.090;-1.786;2023-02-02T05:33:14;102041.47;;;27.12;29.39
53246;BME280;39569;51.090;-1.786;2023-02-02T05:35:45;102034.16;;;27.17;28.75
53246;BME280;39569;51.090;-1.786;2023-02-02T05:38:12;102041.47;;;27.12;29.13
53246;BME280;39569;51.090;-1.786;2023-02-02T05:40:39;102032.09;;;27.08;29.14
53246;BME280;39569;51.090;-1.786;2023-02-02T05:43:05;102027.19;;;27.10;29.22
53246;BME280;39569;51.090;-1.786;2023-02-02T05:45:32;102029.03;;;27.04;29.19
53246;BME280;39569;51.090;-1.786;2023-02-02T05:47:59;102025.38;;;26.99;28.99
53246;BME280;39569;51.090;-1.786;2023-02-02T05:50:25;102017.47;;;27.02;29.21
53246;BME280;39569;51.090;-1.786;2023-02-02T05:52:54;102016.88;;;27.00;29.22
53246;BME280;39569;51.090;-1.786;2023-02-02T05:55:20;102020.47;;;27.01;29.14
53246;BME280;39569;51.090;-1.786;2023-02-02T05:57:47;102017.38;;;26.97;29.21
53246;BME280;39569;51.090;-1.786;2023-02-02T06:00:15;102009.13;;;26.97;28.73
53246;BME280;39569;51.090;-1.786;2023-02-02T06:02:41;102019.56;;;26.95;28.97
53246;BME280;39569;51.090;-1.786;2023-02-02T06:05:08;102014.56;;;26.92;29.33
53246;BME280;39569;51.090;-1.786;2023-02-02T06:07:35;102015.31;;;26.88;28.94
53246;BME280;39569;51.090;-1.786;2023-02-02T06:10:04;102010.44;;;26.90;29.22
53246;BME280;39569;51.090;-1.786;2023-02-02T06:12:31;102009.00;;;26.87;29.38
53246;BME280;39569;51.090;-1.786;2023-02-02T06:14:58;102013.81;;;26.97;29.17
53246;BME280;39569;51.090;-1.786;2023-02-02T06:17:24;102012.56;;;27.04;28.98
53246;BME280;39569;51.090;-1.786;2023-02-02T06:19:51;102024.19;;;27.11;29.04
53246;BME280;39569;51.090;-1.786;2023-02-02T06:22:18;102019.91;;;27.20;28.75
53246;BME280;39569;51.090;-1.786;2023-02-02T06:24:45;102016.50;;;27.30;28.56
53246;BME280;39569;51.090;-1.786;2023-02-02T06:27:13;102015.91;;;27.45;28.51
53246;BME280;39569;51.090;-1.786;2023-02-02T06:29:39;102020.44;;;27.56;28.52
53246;BME280;39569;51.090;-1.786;2023-02-02T06:32:06;102011.75;;;27.64;28.26
53246;BME280;39569;51.090;-1.786;2023-02-02T06:34:33;102014.91;;;27.77;28.49
53246;BME280;39569;51.090;-1.786;2023-02-02T06:36:59;102012.13;;;27.94;28.21
53246;BME280;39569;51.090;-1.786;2023-02-02T06:39:26;102013.97;;;28.10;27.55
53246;BME280;39569;51.090;-1.786;2023-02-02T06:41:53;102014.88;;;28.21;27.80
53246;BME280;39569;51.090;-1.786;2023-02-02T06:44:21;102031.25;;;28.37;27.53
53246;BME280;39569;51.090;-1.786;2023-02-02T06:46:48;102029.97;;;28.45;27.84
53246;BME280;39569;51.090;-1.786;2023-02-02T06:49:14;102022.16;;;28.58;27.16
53246;BME280;39569;51.090;-1.786;2023-02-02T06:51:41;102022.50;;;28.72;27.19
53246;BME280;39569;51.090;-1.786;2023-02-02T06:54:08;102028.38;;;28.80;27.04
53246;BME280;39569;51.090;-1.786;2023-02-02T06:56:34;102030.63;;;28.88;27.07
53246;BME280;39569;51.090;-1.786;2023-02-02T06:59:01;102042.28;;;29.00;26.98
53246;BME280;39569;51.090;-1.786;2023-02-02T07:01:30;102044.28;;;29.10;26.97
53246;BME280;39569;51.090;-1.786;2023-02-02T07:03:56;102050.91;;;29.14;26.99
53246;BME280;39569;51.090;-1.786;2023-02-02T07:06:24;102054.84;;;29.23;27.11
53246;BME280;39569;51.090;-1.786;2023-02-02T07:08:54;102049.38;;;29.33;26.47
53246;BME280;39569;51.090;-1.786;2023-02-02T07:11:21;102051.91;;;29.40;26.85
53246;BME280;39569;51.090;-1.786;2023-02-02T07:13:48;102059.94;;;29.46;27.19
53246;BME280;39569;51.090;-1.786;2023-02-02T07:16:16;102055.84;;;29.54;26.91
53246;BME280;39569;51.090;-1.786;2023-02-02T07:18:45;102060.84;;;29.62;26.73
53246;BME280;39569;51.090;-1.786;2023-02-02T07:21:18;102057.59;;;29.70;26.47
53246;BME280;39569;51.090;-1.786;2023-02-02T07:23:45;102051.00;;;29.76;26.59
53246;BME280;39569;51.090;-1.786;2023-02-02T07:26:12;102055.19;;;29.83;26.48
53246;BME280;39569;51.090;-1.786;2023-02-02T07:28:40;102057.66;;;29.90;26.18
53246;BME280;39569;51.090;-1.786;2023-02-02T07:31:14;102053.59;;;30.02;26.62
53246;BME280;39569;51.090;-1.786;2023-02-02T07:33:42;102052.19;;;30.05;26.19
53246;BME280;39569;51.090;-1.786;2023-02-02T07:36:10;102058.84;;;30.14;26.13
53246;BME280;39569;51.090;-1.786;2023-02-02T07:38:37;102055.28;;;30.19;26.42
53246;BME280;39569;51.090;-1.786;2023-02-02T07:41:04;102064.13;;;30.26;25.90
53246;BME280;39569;51.090;-1.786;2023-02-02T07:43:31;102062.50;;;30.35;26.19
53246;BME280;39569;51.090;-1.786;2023-02-02T07:45:59;102061.97;;;30.48;26.52
53246;BME280;39569;51.090;-1.786;2023-02-02T07:48:28;102070.53;;;30.61;26.14
53246;BME280;39569;51.090;-1.786;2023-02-02T07:50:57;102062.81;;;30.68;26.08
53246;BME280;39569;51.090;-1.786;2023-02-02T07:53:26;102075.81;;;30.73;26.32
53246;BME280;39569;51.090;-1.786;2023-02-02T07:56:04;102071.13;;;30.83;25.84
53246;BME280;39569;51.090;-1.786;2023-02-02T07:58:31;102061.44;;;30.81;26.21
53246;BME280;39569;51.090;-1.786;2023-02-02T08:01:00;102061.75;;;30.89;25.77
53246;BME280;39569;51.090;-1.786;2023-02-02T08:03:27;102065.88;;;30.87;25.82
53246;BME280;39569;51.090;-1.786;2023-02-02T08:05:53;102061.75;;;30.94;25.75
53246;BME280;39569;51.090;-1.786;2023-02-02T08:08:20;102058.97;;;31.00;26.13
53246;BME280;39569;51.090;-1.786;2023-02-02T08:10:49;102068.34;;;31.09;25.93
53246;BME280;39569;51.090;-1.786;2023-02-02T08:13:16;102062.28;;;30.97;26.40
53246;BME280;39569;51.090;-1.786;2023-02-02T08:15:42;102065.63;;;30.93;25.75
53246;BME280;39569;51.090;-1.786;2023-02-02T08:18:09;102073.06;;;30.98;25.70
53246;BME280;39569;51.090;-1.786;2023-02-02T08:20:36;102067.81;;;30.97;26.15
53246;BME280;39569;51.090;-1.786;2023-02-02T08:23:03;102080.78;;;30.96;25.89
53246;BME280;39569;51.090;-1.786;2023-02-02T08:25:30;102066.72;;;31.03;25.55
53246;BME280;39569;51.090;-1.786;2023-02-02T08:27:58;102075.81;;;31.08;25.60
53246;BME280;39569;51.090;-1.786;2023-02-02T08:30:25;102082.72;;;31.06;25.93
53246;BME280;39569;51.090;-1.786;2023-02-02T08:32:52;102082.16;;;30.99;26.32
53246;BME280;39569;51.090;-1.786;2023-02-02T08:35:19;102081.63;;;30.97;25.77
53246;BME280;39569;51.090;-1.786;2023-02-02T08:37:46;102076.09;;;30.97;26.11
53246;BME280;39569;51.090;-1.786;2023-02-02T08:40:14;102084.38;;;30.91;25.92
53246;BME280;39569;51.090;-1.786;2023-02-02T08:42:41;102069.47;;;30.87;26.34
53246;BME280;39569;51.090;-1.786;2023-02-02T08:45:09;102069.47;;;30.82;25.92
53246;BME280;39569;51.090;-1.786;2023-02-02T08:47:36;102074.97;;;30.77;26.37
53246;BME280;39569;51.090;-1.786;2023-02-02T08:50:04;102083.22;;;30.77;26.49
53246;BME280;39569;51.090;-1.786;2023-02-02T08:52:31;102079.38;;;30.73;26.09
53246;BME280;39569;51.090;-1.786;2023-02-02T08:54:57;102089.56;;;30.68;26.15
53246;BME280;39569;51.090;-1.786;2023-02-02T08:57:26;102087.94;;;30.67;26.10
53246;BME280;39569;51.090;-1.786;2023-02-02T08:59:52;102098.38;;;30.55;26.75
53246;BME280;39569;51.090;-1.786;2023-02-02T09:02:20;102096.47;;;30.60;26.48
53246;BME280;39569;51.090;-1.786;2023-02-02T09:04:47;102097.59;;;30.54;26.81
53246;BME280;39569;51.090;-1.786;2023-02-02T09:07:14;102100.88;;;30.41;26.85
53246;BME280;39569;51.090;-1.786;2023-02-02T09:09:41;102101.66;;;30.37;26.85
53246;BME280;39569;51.090;-1.786;2023-02-02T09:12:07;102103.03;;;30.29;27.00
53246;BME280;39569;51.090;-1.786;2023-02-02T09:14:34;102101.34;;;30.23;26.61
53246;BME280;39569;51.090;-1.786;2023-02-02T09:17:01;102098.84;;;30.22;27.27
53246;BME280;39569;51.090;-1.786;2023-02-02T09:19:29;102094.72;;;30.19;27.06
53246;BME280;39569;51.090;-1.786;2023-02-02T09:21:56;102103.50;;;30.16;26.58
53246;BME280;39569;51.090;-1.786;2023-02-02T09:24:22;102110.13;;;30.10;27.07
53246;BME280;39569;51.090;-1.786;2023-02-02T09:26:49;102117.00;;;30.02;27.08
53246;BME280;39569;51.090;-1.786;2023-02-02T09:29:16;102122.50;;;30.02;26.86
53246;BME280;39569;51.090;-1.786;2023-02-02T09:31:43;102127.16;;;29.97;27.12
53246;BME280;39569;51.090;-1.786;2023-02-02T09:34:12;102126.06;;;29.98;27.34
53246;BME280;39569;51.090;-1.786;2023-02-02T09:36:42;102123.00;;;29.89;27.43
53246;BME280;39569;51.090;-1.786;2023-02-02T09:39:10;102132.34;;;29.83;27.33
53246;BME280;39569;51.090;-1.786;2023-02-02T09:47:34;102142.19;;;29.69;27.37
53246;BME280;39569;51.090;-1.786;2023-02-02T09:50:05;102133.53;;;29.61;27.66
53246;BME280;39569;51.090;-1.786;2023-02-02T09:52:42;102133.25;;;29.57;27.67
53246;BME280;39569;51.090;-1.786;2023-02-02T09:55:13;102133.50;;;29.51;27.71
53246;BME280;39569;51.090;-1.786;2023-02-02T09:57:44;102143.38;;;29.47;27.50
53246;BME280;39569;51.090;-1.786;2023-02-02T10:00:32;102135.69;;;29.49;27.68
53246;BME280;39569;51.090;-1.786;2023-02-02T10:03:02;102136.97;;;29.36;27.75
53246;BME280;39569;51.090;-1.786;2023-02-02T10:05:41;102139.72;;;29.36;27.80
53246;BME280;39569;51.090;-1.786;2023-02-02T10:08:16;102145.22;;;29.36;27.70
53246;BME280;39569;51.090;-1.786;2023-02-02T10:10:47;102145.94;;;29.22;27.83
53246;BME280;39569;51.090;-1.786;2023-02-02T10:13:19;102145.34;;;29.15;27.96
53246;BME280;39569;51.090;-1.786;2023-02-02T10:15:53;102147.72;;;29.06;28.21
53246;BME280;39569;51.090;-1.786;2023-02-02T10:18:29;102155.13;;;29.05;28.05
53246;BME280;39569;51.090;-1.786;2023-02-02T10:21:01;102154.84;;;29.02;28.02
53246;BME280;39569;51.090;-1.786;2023-02-02T10:23:33;102157.06;;;29.05;28.16
53246;BME280;39569;51.090;-1.786;2023-02-02T10:26:11;102148.22;;;29.03;28.09
53246;BME280;39569;51.090;-1.786;2023-02-02T10:28:55;102146.59;;;29.02;28.10
53246;BME280;39569;51.090;-1.786;2023-02-02T10:31:40;102149.31;;;28.97;28.10
53246;BME280;39569;51.090;-1.786;2023-02-02T10:34:16;102155.31;;;28.94;28.34
53246;BME280;39569;51.090;-1.786;2023-02-02T10:37:01;102158.88;;;28.89;28.04
53246;BME280;39569;51.090;-1.786;2023-02-02T10:39:44;102160.72;;;28.84;27.93
53246;BME280;39569;51.090;-1.786;2023-02-02T10:42:26;102155.16;;;28.79;28.30
53246;BME280;39569;51.090;-1.786;2023-02-02T10:44:58;102165.06;;;28.75;28.49
53246;BME280;39569;51.090;-1.786;2023-02-02T10:47:28;102164.78;;;28.76;28.42
53246;BME280;39569;51.090;-1.786;2023-02-02T10:50:05;102157.09;;;28.78;28.41
53246;BME280;39569;51.090;-1.786;2023-02-02T10:52:33;102143.78;;;28.65;28.52
53246;BME280;39569;51.090;-1.786;2023-02-02T10:55:04;102173.19;;;28.65;28.42
53246;BME280;39569;51.090;-1.786;2023-02-02T10:57:47;102169.09;;;28.67;28.59
53246;BME280;39569;51.090;-1.786;2023-02-02T11:00:22;102165.50;;;28.67;28.59
53246;BME280;39569;51.090;-1.786;2023-02-02T11:02:51;102170.16;;;28.66;28.51
53246;BME280;39569;51.090;-1.786;2023-02-02T11:05:21;102161.34;;;28.64;28.43
53246;BME280;39569;51.090;-1.786;2023-02-02T11:08:13;102182.41;;;28.54;29.10
53246;BME280;39569;51.090;-1.786;2023-02-02T11:10:43;102169.97;;;28.51;28.90
53246;BME280;39569;51.090;-1.786;2023-02-02T11:13:15;102169.97;;;28.51;28.60
53246;BME280;39569;51.090;-1.786;2023-02-02T11:15:44;102165.75;;;28.44;28.84
53246;BME280;39569;51.090;-1.786;2023-02-02T11:18:13;102151.47;;;28.42;28.47
53246;BME280;39569;51.090;-1.786;2023-02-02T11:20:45;102149.53;;;28.42;28.48
53246;BME280;39569;51.090;-1.786;2023-02-02T11:23:17;102142.94;;;28.43;28.59
53246;BME280;39569;51.090;-1.786;2023-02-02T11:25:56;102144.03;;;28.42;28.54
53246;BME280;39569;51.090;-1.786;2023-02-02T11:28:24;102140.06;;;28.33;28.82
53246;BME280;39569;51.090;-1.786;2023-02-02T11:30:55;102136.50;;;28.33;28.65
53246;BME280;39569;51.090;-1.786;2023-02-02T11:33:26;102136.75;;;28.31;29.00
53246;BME280;39569;51.090;-1.786;2023-02-02T11:35:56;102133.69;;;28.28;28.66
53246;BME280;39569;51.090;-1.786;2023-02-02T11:38:24;102145.66;;;28.17;29.32
53246;BME280;39569;51.090;-1.786;2023-02-02T11:40:58;102140.78;;;28.24;28.82
53246;BME280;39569;51.090;-1.786;2023-02-02T11:43:29;102141.31;;;28.21;28.70
53246;BME280;39569;51.090;-1.786;2023-02-02T11:45:58;102138.28;;;28.22;28.89
53246;BME280;39569;51.090;-1.786;2023-02-02T11:48:31;102134.09;;;28.14;28.89
53246;BME280;39569;51.090;-1.786;2023-02-02T11:51:00;102137.63;;;28.10;29.06
53246;BME280;39569;51.090;-1.786;2023-02-02T11:53:29;102132.94;;;28.10;28.68
53246;BME280;39569;51.090;-1.786;2023-02-02T11:56:01;102120.28;;;28.09;28.97
53246;BME280;39569;51.090;-1.786;2023-02-02T11:58:47;102128.53;;;28.09;29.00
53246;BME280;39569;51.090;-1.786;2023-02-02T12:01:22;102129.59;;;28.08;29.35
53246;BME280;39569;51.090;-1.786;2023-02-02T12:03:49;102113.13;;;28.08;29.23
53246;BME280;39569;51.090;-1.786;2023-02-02T12:06:19;102124.06;;;28.03;28.83
53246;BME280;39569;51.090;-1.786;2023-02-02T12:08:47;102115.50;;;28.00;29.18
53246;BME280;39569;51.090;-1.786;2023-02-02T12:11:31;102114.44;;;28.01;29.24
53246;BME280;39569;51.090;-1.786;2023-02-02T12:14:10;102115.91;;;27.92;29.13
53246;BME280;39569;51.090;-1.786;2023-02-02T12:16:51;102111.50;;;27.91;29.59
53246;BME280;39569;51.090;-1.786;2023-02-02T12:19:47;102105.28;;;27.95;29.11
53246;BME280;39569;51.090;-1.786;2023-02-02T12:22:28;102104.84;;;27.87;29.15
53246;BME280;39569;51.090;-1.786;2023-02-02T12:25:08;102113.69;;;27.89;29.25
53246;BME280;39569;51.090;-1.786;2023-02-02T12:27:52;102098.03;;;27.89;29.28
53246;BME280;39569;51.090;-1.786;2023-02-02T12:30:27;102106.84;;;27.91;29.09
53246;BME280;39569;51.090;-1.786;2023-02-02T12:33:17;102099.38;;;27.87;29.50
53246;BME280;39569;51.090;-1.786;2023-02-02T12:36:00;102094.13;;;27.85;29.08
53246;BME280;39569;51.090;-1.786;2023-02-02T12:38:49;102103.22;;;27.86;29.44
53246;BME280;39569;51.090;-1.786;2023-02-02T12:41:29;102102.09;;;27.87;29.52
53246;BME280;39569;51.090;-1.786;2023-02-02T12:44:11;102096.03;;;27.85;28.99
53246;BME280;39569;51.090;-1.786;2023-02-02T12:46:55;102099.56;;;27.80;29.21
53246;BME280;39569;51.090;-1.786;2023-02-02T12:49:44;102083.31;;;27.79;29.38
53246;BME280;39569;51.090;-1.786;2023-02-02T12:52:27;102072.00;;;27.75;29.52
53246;BME280;39569;51.090;-1.786;2023-02-02T12:55:20;102082.78;;;27.77;29.31
53246;BME280;39569;51.090;-1.786;2023-02-02T12:57:52;102076.38;;;27.71;28.95
53246;BME280;39569;51.090;-1.786;2023-02-02T13:00:34;102062.88;;;27.70;29.36
53246;BME280;39569;51.090;-1.786;2023-02-02T13:03:21;102062.38;;;27.73;29.04
53246;BME280;39569;51.090;-1.786;2023-02-02T13:06:00;102062.72;;;27.76;29.31
53246;BME280;39569;51.090;-1.786;2023-02-02T13:08:35;102056.28;;;27.66;29.08